Time;durP1;ratioP1;P1;durP2;ratioP2;P2;SDS_P1;SDS_P2;PMS_P1;PMS_P2;Temp;Humidity;BMP_temperature;BMP_pressure;BME280_temperature;BME280_humidity;BME280_pressure;Samples;Min_cycle;Max_cycle;Signal;HPM_P1;HPM_P2
2024/01/26 00:01:53;;;;;;;47.72;23.48;;;;;;;-147.95;100.00;58458.38;4955706;28;20049;-85
2024/01/26 00:04:19;;;;;;;46.17;23.20;;;;;;;-147.95;100.00;58458.38;4961641;28;20038;-84
2024/01/26 00:06:45;;;;;;;48.35;23.00;;;;;;;-147.95;100.00;58458.38;4939783;28;20042;-84
2024/01/26 00:09:11;;;;;;;45.70;22.67;;;;;;;-147.95;100.00;58458.38;4959558;28;20038;-85
2024/01/26 00:11:40;;;;;;;41.15;20.90;;;;;;;-147.95;100.00;58458.38;4996347;28;20097;-84
2024/01/26 00:14:07;;;;;;;41.03;22.30;;;;;;;-147.95;100.00;58458.38;4997488;28;20117;-84
2024/01/26 00:16:33;;;;;;;49.25;22.80;;;;;;;-147.95;100.00;58458.38;4989053;28;20500;-84
2024/01/26 00:18:59;;;;;;;46.55;22.70;;;;;;;-147.95;100.00;58458.38;4955635;28;20507;-84
2024/01/26 00:21:25;;;;;;;48.90;22.77;;;;;;;-147.95;100.00;58458.38;4959217;28;20045;-85
2024/01/26 00:23:50;;;;;;;46.42;22.15;;;;;;;-147.95;100.00;58458.38;4975225;28;20446;-84
2024/01/26 00:26:15;;;;;;;47.97;24.25;;;;;;;-147.95;100.00;58458.38;4953250;28;20042;-84
2024/01/26 00:28:41;;;;;;;43.13;23.70;;;;;;;-147.95;100.00;58458.38;4958362;28;20041;-84
2024/01/26 00:31:07;;;;;;;46.40;21.42;;;;;;;-147.95;100.00;58458.38;4973325;28;20050;-85
2024/01/26 00:33:33;;;;;;;44.00;22.85;;;;;;;-147.95;100.00;58458.38;4958639;28;20089;-84
2024/01/26 00:35:59;;;;;;;46.15;22.60;;;;;;;-147.95;100.00;58458.38;4969990;28;20511;-84
2024/01/26 00:38:25;;;;;;;38.47;22.50;;;;;;;-147.95;100.00;58458.38;4960074;28;20034;-84
2024/01/26 00:40:50;;;;;;;37.00;20.80;;;;;;;-147.95;100.00;58458.38;4950725;28;20034;-84
2024/01/26 00:43:18;;;;;;;37.80;21.10;;;;;;;-147.95;100.00;58458.38;4985681;28;20476;-84
2024/01/26 00:45:45;;;;;;;40.40;21.20;;;;;;;-147.95;100.00;58458.38;4958817;28;20034;-84
2024/01/26 00:48:10;;;;;;;45.63;20.80;;;;;;;-147.95;100.00;58458.38;4942089;28;20496;-84
2024/01/26 00:50:36;;;;;;;35.30;20.63;;;;;;;-147.95;100.00;58458.38;4975846;28;20037;-84
2024/01/26 00:53:03;;;;;;;40.33;20.95;;;;;;;-147.95;100.00;58458.38;4957810;28;20037;-84
2024/01/26 00:55:31;;;;;;;32.63;20.02;;;;;;;-147.95;100.00;58458.38;4975202;28;20496;-84
2024/01/26 00:57:57;;;;;;;32.10;19.58;;;;;;;-147.95;100.00;58458.38;4958434;28;20154;-84
2024/01/26 01:00:24;;;;;;;30.48;19.05;;;;;;;-147.95;100.00;58458.38;4975742;28;20136;-84
2024/01/26 01:02:50;;;;;;;31.02;18.58;;;;;;;-147.95;100.00;58458.38;4974250;28;20073;-84
2024/01/26 01:05:17;;;;;;;28.77;17.58;;;;;;;-147.95;100.00;58458.38;4975139;28;20038;-84
2024/01/26 01:07:42;;;;;;;29.60;17.17;;;;;;;-147.95;100.00;58458.38;4974430;28;20084;-84
2024/01/26 01:10:10;;;;;;;31.50;17.05;;;;;;;-147.95;100.00;58458.38;4972018;28;20030;-84
2024/01/26 01:12:39;;;;;;;20.13;14.30;;;;;;;-147.95;100.00;58458.38;4980712;28;20066;-85
2024/01/26 01:15:05;;;;;;;20.13;15.48;;;;;;;-147.95;100.00;58458.38;4956509;28;20037;-85
2024/01/26 01:17:30;;;;;;;20.42;13.80;;;;;;;-147.95;100.00;58458.38;4956293;28;20556;-84
2024/01/26 01:19:56;;;;;;;22.17;13.80;;;;;;;-147.95;100.00;58458.38;4973715;28;20072;-85
2024/01/26 01:22:21;;;;;;;19.05;13.38;;;;;;;-147.95;100.00;58458.38;4958591;28;20038;-84
2024/01/26 01:24:48;;;;;;;19.52;12.70;;;;;;;-147.95;100.00;58458.38;4941761;28;20033;-85
2024/01/26 01:27:13;;;;;;;14.15;10.70;;;;;;;-147.95;100.00;58458.38;4941456;28;20035;-84
2024/01/26 01:29:38;;;;;;;17.75;12.25;;;;;;;-147.95;100.00;58458.38;4957170;28;20037;-84
2024/01/26 01:32:04;;;;;;;13.32;10.80;;;;;;;-147.95;100.00;58458.38;4957965;28;20049;-84
2024/01/26 01:34:30;;;;;;;15.27;10.90;;;;;;;-147.95;100.00;58458.38;4940914;28;20046;-84
2024/01/26 01:36:55;;;;;;;14.20;10.27;;;;;;;-147.95;100.00;58458.38;4955594;28;20075;-89
2024/01/26 01:39:20;;;;;;;11.65;9.40;;;;;;;-147.95;100.00;58458.38;4964179;28;20038;-89
2024/01/26 01:41:47;;;;;;;12.77;9.55;;;;;;;-147.95;100.00;58458.38;4954287;28;20033;-89
2024/01/26 01:44:13;;;;;;;12.98;9.95;;;;;;;-147.95;100.00;58458.38;4961074;28;20034;-89
2024/01/26 01:46:38;;;;;;;13.68;10.10;;;;;;;-147.95;100.00;58458.38;4973782;28;20530;-89
2024/01/26 01:49:06;;;;;;;11.73;8.85;;;;;;;-147.95;100.00;58458.38;4960697;28;20089;-89
2024/01/26 01:51:35;;;;;;;12.05;8.77;;;;;;;-147.95;100.00;58458.38;4944366;28;20034;-89
2024/01/26 01:54:01;;;;;;;10.38;8.70;;;;;;;-147.95;100.00;58458.38;4970695;28;20037;-89
2024/01/26 01:56:28;;;;;;;14.57;9.27;;;;;;;-147.95;100.00;58458.38;4976857;28;20038;-89
2024/01/26 01:58:55;;;;;;;12.73;9.07;;;;;;;-147.95;100.00;58458.38;4958184;28;20412;-88
2024/01/26 02:01:20;;;;;;;12.68;9.27;;;;;;;-147.95;100.00;58458.38;4957934;28;20019;-89
2024/01/26 02:03:46;;;;;;;13.32;9.05;;;;;;;-147.95;100.00;58458.38;4977419;28;20057;-89
2024/01/26 02:06:11;;;;;;;11.20;9.07;;;;;;;-147.95;100.00;58458.38;4945320;28;20045;-90
2024/01/26 02:08:37;;;;;;;12.18;9.07;;;;;;;-147.95;100.00;58458.38;4936386;28;20400;-88
2024/01/26 02:11:03;;;;;;;13.43;9.13;;;;;;;-147.95;100.00;58458.38;4958248;28;20029;-88
2024/01/26 02:13:29;;;;;;;11.45;8.57;;;;;;;-147.95;100.00;58458.38;4935967;28;20411;-88
2024/01/26 02:15:54;;;;;;;7.97;7.00;;;;;;;-147.95;100.00;58458.38;4987787;28;20023;-88
2024/01/26 02:18:21;;;;;;;12.43;8.25;;;;;;;-147.95;100.00;58458.38;4944675;28;20076;-88
2024/01/26 02:20:46;;;;;;;10.27;8.32;;;;;;;-147.95;100.00;58458.38;4937681;28;20027;-88
2024/01/26 02:23:22;;;;;;;11.05;8.10;;;;;;;-147.95;100.00;58458.38;4957192;28;20038;-88
2024/01/26 02:25:49;;;;;;;12.07;8.35;;;;;;;-147.95;100.00;58458.38;4984752;28;20049;-88
2024/01/26 02:28:14;;;;;;;12.05;8.48;;;;;;;-147.95;100.00;58458.38;4976773;28;20035;-89
2024/01/26 02:30:40;;;;;;;9.82;7.35;;;;;;;-147.95;100.00;58458.38;4958579;28;20044;-89
2024/01/26 02:33:06;;;;;;;10.95;8.65;;;;;;;-147.95;100.00;58458.38;4960866;28;20018;-90
2024/01/26 02:35:32;;;;;;;12.30;7.60;;;;;;;-147.95;100.00;58458.38;4942438;28;20101;-89
2024/01/26 02:37:57;;;;;;;8.07;7.25;;;;;;;-147.95;100.00;58458.38;4961031;28;20030;-89
2024/01/26 02:40:23;;;;;;;9.32;6.38;;;;;;;-147.95;100.00;58458.38;4948846;28;20149;-89
2024/01/26 02:42:49;;;;;;;8.18;6.53;;;;;;;-147.95;100.00;58458.38;4964366;28;20038;-89
2024/01/26 02:45:16;;;;;;;8.77;6.53;;;;;;;-147.95;100.00;58458.38;4960338;28;20030;-89
2024/01/26 02:47:44;;;;;;;9.93;6.72;;;;;;;-147.95;100.00;58458.38;4953956;28;20030;-89
2024/01/26 02:50:10;;;;;;;6.32;5.72;;;;;;;-147.95;100.00;58458.38;4949439;28;20033;-89
2024/01/26 02:52:37;;;;;;;8.57;6.13;;;;;;;-147.95;100.00;58458.38;4946781;28;20075;-89
2024/01/26 02:55:04;;;;;;;9.13;6.40;;;;;;;-147.95;100.00;58458.38;4981329;28;20427;-90
2024/01/26 02:57:31;;;;;;;9.77;5.82;;;;;;;-147.95;100.00;58458.38;4948556;28;20042;-89
2024/01/26 02:59:56;;;;;;;8.82;5.97;;;;;;;-147.95;100.00;58458.38;4969803;28;20117;-89
2024/01/26 03:02:22;;;;;;;6.43;5.88;;;;;;;-147.95;100.00;58458.38;4958152;28;20149;-89
2024/01/26 03:04:47;;;;;;;9.57;6.65;;;;;;;-147.95;100.00;58458.38;4955316;28;20405;-88
2024/01/26 03:07:13;;;;;;;14.18;6.03;;;;;;;-147.95;100.00;58458.38;4939592;28;20369;-89
2024/01/26 03:09:38;;;;;;;7.93;6.20;;;;;;;-147.95;100.00;58458.38;4977424;28;20039;-88
2024/01/26 03:12:05;;;;;;;9.82;5.90;;;;;;;-147.95;100.00;58458.38;4953358;28;20114;-88
2024/01/26 03:14:32;;;;;;;7.28;5.72;;;;;;;-147.95;100.00;58458.38;4951459;28;20080;-88
2024/01/26 03:16:59;;;;;;;7.82;5.88;;;;;;;-147.95;100.00;58458.38;4955786;28;20019;-89
2024/01/26 03:19:24;;;;;;;7.00;5.85;;;;;;;-147.95;100.00;58458.38;4956200;28;20129;-88
2024/01/26 03:21:49;;;;;;;6.47;5.28;;;;;;;-147.95;100.00;58458.38;4943155;28;20553;-88
2024/01/26 03:24:15;;;;;;;7.13;5.20;;;;;;;-147.95;100.00;58458.38;4956498;28;20382;-89
2024/01/26 03:26:41;;;;;;;12.32;5.65;;;;;;;-147.95;100.00;58458.38;4958421;28;20460;-88
2024/01/26 03:29:07;;;;;;;8.30;5.22;;;;;;;-147.95;100.00;58458.38;4987812;28;20552;-88
2024/01/26 03:31:32;;;;;;;10.32;6.03;;;;;;;-147.95;100.00;58458.38;4961137;28;20039;-88
2024/01/26 03:33:58;;;;;;;5.00;4.50;;;;;;;-147.95;100.00;58458.38;4977754;28;20062;-88
2024/01/26 03:36:24;;;;;;;6.25;4.88;;;;;;;-147.95;100.00;58458.38;4977763;28;20051;-88
2024/01/26 03:38:50;;;;;;;8.15;4.93;;;;;;;-147.95;100.00;58458.38;4945979;28;20043;-89
2024/01/26 03:41:15;;;;;;;8.48;5.07;;;;;;;-147.95;100.00;58458.38;4951836;28;20031;-88
2024/01/26 03:43:41;;;;;;;9.43;5.65;;;;;;;-147.95;100.00;58458.38;4968166;28;20042;-88
2024/01/26 03:46:07;;;;;;;6.13;4.88;;;;;;;-147.95;100.00;58458.38;4960117;28;20046;-88
2024/01/26 03:48:33;;;;;;;5.72;4.97;;;;;;;-147.95;100.00;58458.38;4969439;28;20038;-88
2024/01/26 03:50:59;;;;;;;6.05;5.22;;;;;;;-147.95;100.00;58458.38;4966079;28;20038;-88
2024/01/26 03:53:24;;;;;;;9.93;4.95;;;;;;;-147.95;100.00;58458.38;4966951;28;20033;-88
2024/01/26 03:55:51;;;;;;;8.52;6.20;;;;;;;-147.95;100.00;58458.38;4953246;28;20505;-88
2024/01/26 03:58:18;;;;;;;8.07;5.30;;;;;;;-147.95;100.00;58458.38;4960870;28;20037;-88
2024/01/26 04:00:43;;;;;;;7.38;5.18;;;;;;;-147.95;100.00;58458.38;4968348;28;20034;-88
2024/01/26 04:03:09;;;;;;;5.95;5.32;;;;;;;-147.95;100.00;58458.38;4944713;28;20141;-89
2024/01/26 04:05:34;;;;;;;10.98;5.70;;;;;;;-147.95;100.00;58458.38;4973814;28;20045;-89
2024/01/26 04:08:03;;;;;;;7.32;5.15;;;;;;;-147.95;100.00;58458.38;4960826;28;20031;-87
2024/01/26 04:10:29;;;;;;;10.13;5.30;;;;;;;-147.95;100.00;58458.38;4971871;28;20058;-89
2024/01/26 04:12:57;;;;;;;7.60;5.38;;;;;;;-147.95;100.00;58458.38;4961705;28;20023;-89
2024/01/26 04:15:25;;;;;;;9.13;6.47;;;;;;;-147.95;100.00;58458.38;4961036;28;20046;-89
2024/01/26 04:17:51;;;;;;;8.18;5.15;;;;;;;-147.95;100.00;58458.38;4971980;28;20055;-89
2024/01/26 04:20:17;;;;;;;5.88;5.28;;;;;;;-147.95;100.00;58458.38;4966102;28;20030;-88
2024/01/26 04:22:43;;;;;;;5.35;4.75;;;;;;;-147.95;100.00;58458.38;4962879;28;20058;-89
2024/01/26 04:25:11;;;;;;;7.75;5.20;;;;;;;-147.95;100.00;58458.38;4961827;28;20485;-89
2024/01/26 04:27:37;;;;;;;6.53;4.53;;;;;;;-147.95;100.00;58458.38;4947313;28;20038;-88
2024/01/26 04:30:03;;;;;;;4.85;4.20;;;;;;;-147.95;100.00;58458.38;4951862;28;20026;-89
2024/01/26 04:32:29;;;;;;;6.88;4.80;;;;;;;-147.95;100.00;58458.38;4980676;28;20543;-87
2024/01/26 04:34:55;;;;;;;8.23;5.47;;;;;;;-147.95;100.00;58458.38;4948623;28;20034;-88
2024/01/26 04:37:22;;;;;;;5.78;5.25;;;;;;;-147.95;100.00;58458.38;4967309;28;20071;-89
2024/01/26 04:39:47;;;;;;;8.18;5.65;;;;;;;-147.95;100.00;58458.38;4958398;28;20033;-89
2024/01/26 04:42:14;;;;;;;6.65;4.60;;;;;;;-147.95;100.00;58458.38;4974017;28;20039;-88
2024/01/26 04:44:39;;;;;;;8.32;5.00;;;;;;;-147.95;100.00;58458.38;4950251;28;20026;-88
2024/01/26 04:47:05;;;;;;;5.63;4.85;;;;;;;-147.95;100.00;58458.38;4947079;29;20093;-88
2024/01/26 04:49:30;;;;;;;8.07;5.40;;;;;;;-147.95;100.00;58458.38;4942238;28;20496;-89
2024/01/26 04:51:57;;;;;;;7.35;4.13;;;;;;;-147.95;100.00;58458.38;4961712;28;20125;-88
2024/01/26 04:54:23;;;;;;;13.55;6.07;;;;;;;-147.95;100.00;58458.38;4943842;28;20039;-87
2024/01/26 04:56:48;;;;;;;9.80;5.57;;;;;;;-147.95;100.00;58458.38;4972679;28;20030;-88
2024/01/26 04:59:15;;;;;;;14.73;5.63;;;;;;;-147.95;100.00;58458.38;4968864;28;20070;-88
2024/01/26 05:01:41;;;;;;;6.95;5.18;;;;;;;-147.95;100.00;58458.38;4942701;28;20047;-87
2024/01/26 05:04:06;;;;;;;6.13;5.53;;;;;;;-147.95;100.00;58458.38;4957048;28;20034;-89
2024/01/26 05:06:32;;;;;;;5.20;4.47;;;;;;;-147.95;100.00;58458.38;4957002;28;20027;-84
2024/01/26 05:08:57;;;;;;;6.82;5.00;;;;;;;-147.95;100.00;58458.38;4959288;28;20044;-84
2024/01/26 05:11:23;;;;;;;14.23;5.15;;;;;;;-147.95;100.00;58458.38;4956263;28;20507;-83
2024/01/26 05:13:48;;;;;;;4.80;4.32;;;;;;;-147.95;100.00;58458.38;4949242;28;20042;-84
2024/01/26 05:16:15;;;;;;;5.90;4.78;;;;;;;-147.95;100.00;58458.38;4968504;28;20088;-83
2024/01/26 05:18:41;;;;;;;7.00;4.32;;;;;;;-147.95;100.00;58458.38;4968387;28;20038;-83
2024/01/26 05:21:06;;;;;;;4.70;4.22;;;;;;;-147.95;100.00;58458.38;4956682;28;20112;-85
2024/01/26 05:23:33;;;;;;;5.95;4.47;;;;;;;-147.95;100.00;58458.38;4974383;28;20050;-85
2024/01/26 05:25:58;;;;;;;6.50;5.15;;;;;;;-147.95;100.00;58458.38;4943281;28;20038;-86
2024/01/26 05:28:24;;;;;;;5.20;4.45;;;;;;;-147.95;100.00;58458.38;4958712;28;20030;-84
2024/01/26 05:30:50;;;;;;;7.32;4.82;;;;;;;-147.95;100.00;58458.38;4956417;28;20049;-85
2024/01/26 05:33:15;;;;;;;6.13;4.63;;;;;;;-147.95;100.00;58458.38;4973904;28;20023;-86
2024/01/26 05:35:42;;;;;;;8.20;4.82;;;;;;;-147.95;100.00;58458.38;4944068;28;20397;-86
2024/01/26 05:38:07;;;;;;;7.10;4.50;;;;;;;-147.95;100.00;58458.38;4959180;28;21242;-85
2024/01/26 05:40:33;;;;;;;4.85;4.30;;;;;;;-147.95;100.00;58458.38;4974250;28;20041;-85
2024/01/26 05:42:59;;;;;;;6.80;5.10;;;;;;;-147.95;100.00;58458.38;4963834;28;20023;-85
2024/01/26 05:45:28;;;;;;;9.02;4.93;;;;;;;-147.95;100.00;58458.38;4959480;28;20129;-88
2024/01/26 05:47:54;;;;;;;9.90;5.35;;;;;;;-147.95;100.00;58458.38;4959466;28;20026;-87
2024/01/26 05:50:21;;;;;;;9.98;5.32;;;;;;;-147.95;100.00;58458.38;4974442;28;20125;-85
2024/01/26 05:52:47;;;;;;;6.18;5.57;;;;;;;-147.95;100.00;58458.38;4943820;28;20038;-84
2024/01/26 05:55:12;;;;;;;9.95;6.28;;;;;;;-147.95;100.00;58458.38;4952332;28;20034;-85
2024/01/26 05:57:39;;;;;;;11.40;5.82;;;;;;;-147.95;100.00;58458.38;4952767;28;20053;-85
2024/01/26 06:00:06;;;;;;;8.40;6.05;;;;;;;-147.95;100.00;58458.38;4954718;28;20433;-86
2024/01/26 06:02:31;;;;;;;8.60;5.47;;;;;;;-147.95;100.00;58458.38;4968890;28;20068;-86
2024/01/26 06:04:57;;;;;;;7.47;6.25;;;;;;;-147.95;100.00;58458.38;4939109;28;20575;-86
2024/01/26 06:07:22;;;;;;;7.00;5.93;;;;;;;-147.95;100.00;58458.38;4962585;28;20108;-86
2024/01/26 06:09:47;;;;;;;12.25;6.65;;;;;;;-147.95;100.00;58458.38;4973441;28;20034;-86
2024/01/26 06:12:14;;;;;;;7.97;6.43;;;;;;;-147.95;100.00;58458.38;4956302;28;20393;-85
2024/01/26 06:14:40;;;;;;;8.02;6.30;;;;;;;-147.95;100.00;58458.38;4943412;28;20480;-85
2024/01/26 06:17:05;;;;;;;10.18;7.22;;;;;;;-147.95;100.00;58458.38;4963765;28;20034;-86
2024/01/26 06:19:30;;;;;;;13.48;7.40;;;;;;;-147.95;100.00;58458.38;4961826;28;20377;-87
2024/01/26 06:21:56;;;;;;;9.90;6.57;;;;;;;-147.95;100.00;58458.38;4967311;28;20069;-87
2024/01/26 06:24:24;;;;;;;9.82;7.38;;;;;;;-147.95;100.00;58458.38;4943208;28;20034;-86
2024/01/26 06:26:50;;;;;;;9.50;7.65;;;;;;;-147.95;100.00;58458.38;4956595;28;20469;-87
2024/01/26 06:29:15;;;;;;;11.00;7.93;;;;;;;-147.95;100.00;58458.38;4967762;28;20061;-86
2024/01/26 06:31:41;;;;;;;8.98;6.82;;;;;;;-147.95;100.00;58458.38;4942199;28;20027;-87
2024/01/26 06:34:06;;;;;;;11.65;8.02;;;;;;;-147.95;100.00;58458.38;4957517;28;20062;-87
2024/01/26 06:36:32;;;;;;;16.98;9.60;;;;;;;-147.95;100.00;58458.38;4939912;28;20038;-87
2024/01/26 06:38:57;;;;;;;16.88;9.05;;;;;;;-147.95;100.00;58458.38;4955714;28;20510;-87
2024/01/26 06:41:22;;;;;;;12.05;8.80;;;;;;;-147.95;100.00;58458.38;4935109;28;20129;-87
2024/01/26 06:43:51;;;;;;;15.15;9.48;;;;;;;-147.95;100.00;58458.38;4954148;28;20065;-86
2024/01/26 06:46:23;;;;;;;13.77;9.35;;;;;;;-147.95;100.00;58458.38;4959071;28;20551;-87
2024/01/26 06:48:51;;;;;;;15.13;9.23;;;;;;;-147.95;100.00;58458.38;4973232;28;20125;-86
2024/01/26 06:51:17;;;;;;;15.82;9.52;;;;;;;-147.95;100.00;58458.38;4966774;28;20097;-87
2024/01/26 06:53:44;;;;;;;13.93;9.63;;;;;;;-147.95;100.00;58458.38;4972896;28;20116;-87
2024/01/26 06:56:09;;;;;;;13.70;9.13;;;;;;;-147.95;100.00;58458.38;4951998;28;20102;-86
2024/01/26 06:58:35;;;;;;;15.85;10.45;;;;;;;-147.95;100.00;58458.38;4955760;28;20542;-87
2024/01/26 07:01:01;;;;;;;14.80;8.40;;;;;;;-147.95;100.00;58458.38;4956585;28;20065;-86
2024/01/26 07:03:28;;;;;;;16.02;10.32;;;;;;;-147.95;100.00;58458.38;4961054;28;20065;-87
2024/01/26 07:05:53;;;;;;;15.18;10.35;;;;;;;-147.95;100.00;58458.38;4942790;28;20030;-87
2024/01/26 07:08:19;;;;;;;15.13;10.13;;;;;;;-147.95;100.00;58458.38;4943156;28;20049;-88
2024/01/26 07:10:44;;;;;;;16.45;10.55;;;;;;;-147.95;100.00;58458.38;4942954;28;20033;-88
2024/01/26 07:13:10;;;;;;;14.43;9.65;;;;;;;-147.95;100.00;58458.38;4975329;28;20437;-88
2024/01/26 07:15:36;;;;;;;18.30;9.70;;;;;;;-147.95;100.00;58458.38;4958220;28;20034;-87
2024/01/26 07:18:02;;;;;;;12.57;9.27;;;;;;;-147.95;100.00;58458.38;4964234;28;20508;-87
2024/01/26 07:20:27;;;;;;;12.52;8.95;;;;;;;-147.95;100.00;58458.38;4978140;28;20038;-87
2024/01/26 07:22:53;;;;;;;11.65;8.50;;;;;;;-147.95;100.00;58458.38;4959276;28;20042;-88
2024/01/26 07:25:21;;;;;;;13.23;7.80;;;;;;;-147.95;100.00;58458.38;4975491;28;20117;-87
2024/01/26 07:27:48;;;;;;;14.10;10.20;;;;;;;-147.95;100.00;58458.38;4962925;28;20121;-87
2024/01/26 07:30:15;;;;;;;14.90;9.63;;;;;;;-147.95;100.00;58458.38;4960234;28;20042;-87
2024/01/26 07:32:41;;;;;;;12.05;8.85;;;;;;;-147.95;100.00;58458.38;4979127;28;20037;-87
2024/01/26 07:35:07;;;;;;;12.98;10.30;;;;;;;-147.95;100.00;58458.38;4958645;28;20038;-88
2024/01/26 07:37:33;;;;;;;20.23;10.35;;;;;;;-147.95;100.00;58458.38;4977607;28;20042;-87
2024/01/26 07:40:00;;;;;;;14.02;9.60;;;;;;;-147.95;100.00;58458.38;4959975;28;20058;-88
2024/01/26 07:42:26;;;;;;;13.95;9.10;;;;;;;-147.95;100.00;58458.38;4945376;28;20515;-88
2024/01/26 07:44:51;;;;;;;13.68;9.57;;;;;;;-147.95;100.00;58458.38;4964742;28;20497;-89
2024/01/26 07:47:18;;;;;;;14.55;9.70;;;;;;;-147.95;100.00;58458.38;4944334;28;20041;-88
2024/01/26 07:49:43;;;;;;;14.63;10.00;;;;;;;-147.95;100.00;58458.38;4979101;28;20121;-88
2024/01/26 07:52:08;;;;;;;11.85;8.77;;;;;;;-147.95;100.00;58458.38;4958669;28;20130;-88
2024/01/26 07:54:34;;;;;;;14.57;9.27;;;;;;;-147.95;100.00;58458.38;4934335;28;20036;-88
2024/01/26 07:56:59;;;;;;;12.27;8.68;;;;;;;-147.95;100.00;58458.38;4975356;28;20027;-88
2024/01/26 07:59:25;;;;;;;11.50;8.57;;;;;;;-147.95;100.00;58458.38;4959724;28;20027;-87
2024/01/26 08:01:51;;;;;;;13.57;8.43;;;;;;;-147.95;100.00;58458.38;4971846;28;20042;-88
2024/01/26 08:04:17;;;;;;;11.07;8.70;;;;;;;-147.95;100.00;58458.38;4976324;28;20044;-87
2024/01/26 08:06:42;;;;;;;12.63;8.90;;;;;;;-147.95;100.00;58458.38;4961048;28;20038;-87
2024/01/26 08:09:10;;;;;;;10.75;9.02;;;;;;;-147.95;100.00;58458.38;4945392;28;20065;-88
2024/01/26 08:11:36;;;;;;;14.95;9.43;;;;;;;-147.95;100.00;58458.38;4980008;28;20018;-88
2024/01/26 08:14:02;;;;;;;11.68;9.30;;;;;;;-147.95;100.00;58458.38;4969526;28;20387;-87
2024/01/26 08:16:27;;;;;;;12.90;9.05;;;;;;;-147.95;100.00;58458.38;4945154;28;20117;-87
2024/01/26 08:18:54;;;;;;;12.15;9.00;;;;;;;-147.95;100.00;58458.38;4961630;28;20243;-88
2024/01/26 08:21:20;;;;;;;15.75;8.65;;;;;;;-147.95;100.00;58458.38;4946585;28;20440;-88
2024/01/26 08:23:46;;;;;;;13.20;9.50;;;;;;;-147.95;100.00;58458.38;4971272;28;20115;-88
2024/01/26 08:26:14;;;;;;;14.50;9.20;;;;;;;-147.95;100.00;58458.38;4955970;28;20046;-89
2024/01/26 08:28:39;;;;;;;15.10;10.23;;;;;;;-147.95;100.00;58458.38;4959636;28;20035;-88
2024/01/26 08:31:05;;;;;;;12.65;7.60;;;;;;;-147.95;100.00;58458.38;4966712;28;20510;-87
2024/01/26 08:33:31;;;;;;;13.68;9.52;;;;;;;-147.95;100.00;58458.38;4975543;28;20058;-89
2024/01/26 08:35:58;;;;;;;11.02;8.98;;;;;;;-147.95;100.00;58458.38;4958847;28;20392;-88
2024/01/26 08:38:24;;;;;;;14.25;9.98;;;;;;;-147.95;100.00;58458.38;4946228;28;20047;-88
2024/01/26 08:40:49;;;;;;;15.02;9.73;;;;;;;-147.95;100.00;58458.38;4945940;28;20448;-88
2024/01/26 08:43:15;;;;;;;13.20;9.52;;;;;;;-147.95;100.00;58458.38;4974730;28;20027;-88
2024/01/26 08:45:41;;;;;;;12.13;8.60;;;;;;;-147.95;100.00;58458.38;4963631;28;20035;-88
2024/01/26 08:48:06;;;;;;;13.00;9.68;;;;;;;-147.95;100.00;58458.38;4974682;28;20380;-88
2024/01/26 08:50:33;;;;;;;9.88;8.10;;;;;;;-147.95;100.00;58458.38;4961480;28;20030;-87
2024/01/26 08:52:58;;;;;;;10.13;8.27;;;;;;;-147.95;100.00;58458.38;4957770;28;20023;-88
2024/01/26 08:55:23;;;;;;;11.63;8.35;;;;;;;-147.95;100.00;58458.38;4975471;28;20033;-88
2024/01/26 08:57:50;;;;;;;11.50;7.82;;;;;;;-147.95;100.00;58458.38;4961279;28;20026;-87
2024/01/26 09:00:16;;;;;;;10.18;7.80;;;;;;;-147.95;100.00;58458.38;4961593;28;20109;-88
2024/01/26 09:02:41;;;;;;;10.10;8.02;;;;;;;-147.95;100.00;58458.38;4966483;28;20185;-88
2024/01/26 09:05:08;;;;;;;9.35;7.50;;;;;;;-147.95;100.00;58458.38;4945588;28;20506;-88
2024/01/26 09:07:33;;;;;;;11.68;6.35;;;;;;;-147.95;100.00;58458.38;4976703;28;20407;-88
2024/01/26 09:10:00;;;;;;;16.08;6.85;;;;;;;-147.95;100.00;58458.38;4954796;28;20117;-87
2024/01/26 09:12:25;;;;;;;10.60;6.60;;;;;;;-147.95;100.00;58458.38;4976260;28;20058;-88
2024/01/26 09:14:50;;;;;;;7.80;6.45;;;;;;;-147.95;100.00;58458.38;4956978;28;20058;-88
2024/01/26 09:17:16;;;;;;;8.20;5.78;;;;;;;-147.95;100.00;58458.38;4957506;28;20380;-88
2024/01/26 09:19:42;;;;;;;7.45;5.40;;;;;;;-147.95;100.00;58458.38;4960156;28;20121;-88
2024/01/26 09:22:08;;;;;;;6.25;5.35;;;;;;;-147.95;100.00;58458.38;4955696;28;20030;-88
2024/01/26 09:24:34;;;;;;;8.27;5.22;;;;;;;-147.95;100.00;58458.38;4960902;28;20058;-88
2024/01/26 09:26:59;;;;;;;7.45;5.38;;;;;;;-147.95;100.00;58458.38;4968010;28;20034;-87
2024/01/26 09:29:26;;;;;;;8.98;5.22;;;;;;;-147.95;100.00;58458.38;4978521;28;20034;-88
2024/01/26 09:31:54;;;;;;;10.13;4.60;;;;;;;-147.95;100.00;58458.38;4942982;28;20060;-88
2024/01/26 09:34:19;;;;;;;8.93;4.50;;;;;;;-147.95;100.00;58458.38;4959451;28;20036;-88
2024/01/26 09:36:44;;;;;;;7.68;4.35;;;;;;;-147.95;100.00;58458.38;4942440;28;20035;-87
2024/01/26 09:39:10;;;;;;;6.00;4.10;;;;;;;-147.95;100.00;58458.38;4957757;28;20041;-88
2024/01/26 09:41:36;;;;;;;5.13;3.60;;;;;;;-147.95;100.00;58458.38;4944672;28;20042;-87
2024/01/26 09:44:02;;;;;;;3.47;2.97;;;;;;;-147.95;100.00;58458.38;4960376;28;20416;-88
2024/01/26 09:46:30;;;;;;;5.95;2.70;;;;;;;-147.95;100.00;58458.38;4957205;28;20041;-85
2024/01/26 09:48:58;;;;;;;4.75;2.65;;;;;;;-147.95;100.00;58458.38;4973778;28;20034;-86
2024/01/26 09:51:27;;;;;;;6.72;2.17;;;;;;;-147.95;100.00;58458.38;4955848;28;20041;-86
2024/01/26 09:53:57;;;;;;;9.07;2.33;;;;;;;-147.95;100.00;58458.38;4965343;28;20041;-85
2024/01/26 09:56:23;;;;;;;6.50;2.45;;;;;;;-147.95;100.00;58458.38;4986628;28;20026;-86
2024/01/26 09:58:48;;;;;;;3.53;2.25;;;;;;;-147.95;100.00;58458.38;4944362;28;20049;-87
2024/01/26 10:01:21;;;;;;;4.30;2.03;;;;;;;-147.95;100.00;58458.38;4974648;28;20057;-87
2024/01/26 10:03:46;;;;;;;6.47;1.88;;;;;;;-147.95;100.00;58458.38;4969307;28;20047;-86
2024/01/26 10:06:12;;;;;;;4.70;2.00;;;;;;;-147.95;100.00;58458.38;4969813;28;20101;-85
2024/01/26 10:08:39;;;;;;;7.43;1.80;;;;;;;-147.95;100.00;58458.38;4954566;28;20069;-85
2024/01/26 10:11:04;;;;;;;4.15;1.73;;;;;;;-147.95;100.00;58458.38;4954141;28;20038;-83
2024/01/26 10:13:30;;;;;;;5.03;0.90;;;;;;;-147.95;100.00;58458.38;4953382;28;20034;-84
2024/01/26 10:16:11;;;;;;;6.93;0.90;;;;;;;-147.95;100.00;58458.38;4958819;28;20061;-86
2024/01/26 10:18:40;;;;;;;3.33;0.95;;;;;;;-147.95;100.00;58458.38;4970437;28;20034;-85
2024/01/26 10:21:05;;;;;;;6.80;0.70;;;;;;;-147.95;100.00;58458.38;4985878;28;20055;-86
2024/01/26 10:23:31;;;;;;;9.30;1.25;;;;;;;-147.95;100.00;58458.38;4938526;28;20380;-85
2024/01/26 10:25:56;;;;;;;5.85;0.90;;;;;;;-147.95;100.00;58458.38;4936840;28;20061;-84
2024/01/26 10:28:22;;;;;;;6.18;0.80;;;;;;;-147.95;100.00;58458.38;4955015;28;20038;-84
2024/01/26 10:30:47;;;;;;;5.03;1.23;;;;;;;-147.95;100.00;58458.38;4942874;28;20026;-84
2024/01/26 10:33:13;;;;;;;8.93;1.08;;;;;;;-147.95;100.00;58458.38;4939005;28;20034;-84
2024/01/26 10:35:46;;;;;;;2.90;0.68;;;;;;;-147.95;100.00;58458.38;4973076;28;20053;-84
2024/01/26 10:38:13;;;;;;;6.72;0.70;;;;;;;-147.95;100.00;58458.38;4970999;28;20053;-84
2024/01/26 10:40:45;;;;;;;11.40;1.98;;;;;;;-147.95;100.00;58458.38;4967403;28;20092;-85
2024/01/26 10:43:11;;;;;;;8.70;0.87;;;;;;;-147.95;100.00;58458.38;4957268;28;20031;-83
2024/01/26 10:45:41;;;;;;;11.07;1.42;;;;;;;-147.95;100.00;58458.38;4988674;28;20030;-84
2024/01/26 10:48:11;;;;;;;6.45;0.85;;;;;;;-147.95;100.00;58458.38;4971740;28;20026;-83
2024/01/26 10:50:37;;;;;;;5.68;0.82;;;;;;;-147.95;100.00;58458.38;4967234;28;20026;-84
2024/01/26 10:53:07;;;;;;;11.82;1.50;;;;;;;-147.95;100.00;58458.38;4953445;28;20034;-84
2024/01/26 10:55:35;;;;;;;6.90;1.25;;;;;;;-147.95;100.00;58458.38;4966915;28;20536;-84
2024/01/26 10:58:02;;;;;;;5.25;1.25;;;;;;;-147.95;100.00;58458.38;4955909;28;20054;-84
2024/01/26 11:00:28;;;;;;;10.15;1.90;;;;;;;-147.95;100.00;58458.38;4968914;28;20034;-84